createdAt,value
2023-01-28T00:01:22.162Z,101997.34
2023-01-28T00:03:52.359Z,101999.06
2023-01-28T00:06:19.309Z,101996.47
2023-01-28T00:08:46.169Z,101992.13
2023-01-28T00:11:13.937Z,101998.13
2023-01-28T00:13:40.958Z,101998.19
2023-01-28T00:16:08.986Z,102002.47
2023-01-28T00:18:36.431Z,101999.94
2023-01-28T00:21:12.673Z,101999.88
2023-01-28T00:23:40.933Z,101997.22
2023-01-28T00:26:13.697Z,101986.75
2023-01-28T00:28:41.089Z,101982.25
2023-01-28T00:31:16.235Z,101981.34
2023-01-28T00:33:43.959Z,101977.94
2023-01-28T00:36:10.816Z,101976.97
2023-01-28T00:38:37.324Z,101980.38
2023-01-28T00:41:15.143Z,101984.63
2023-01-28T00:43:42.664Z,101983.75
2023-01-28T00:46:10.836Z,101981.16
2023-01-28T00:48:38.400Z,101982.13
2023-01-28T00:51:05.519Z,101982.22
2023-01-28T00:53:32.291Z,101992.38
2023-01-28T00:55:59.159Z,101994.09
2023-01-28T00:58:25.595Z,101986.25
2023-01-28T01:00:52.331Z,101984.53
2023-01-28T01:03:19.435Z,101987.81
2023-01-28T01:05:46.752Z,101985.28
2023-01-28T01:08:13.516Z,101989.53
2023-01-28T01:10:40.805Z,101996.34
2023-01-28T01:13:08.326Z,101988.50
2023-01-28T01:15:34.825Z,101992.78
2023-01-28T01:18:01.273Z,102001.28
2023-01-28T01:20:30.365Z,101992.66
2023-01-28T01:22:56.819Z,101996.19
2023-01-28T01:25:23.239Z,101993.50
2023-01-28T01:27:50.021Z,101996.91
2023-01-28T01:30:17.057Z,101998.66
2023-01-28T01:32:43.529Z,102001.25
2023-01-28T01:35:10.825Z,101989.16
2023-01-28T01:37:37.740Z,101994.16
2023-01-28T01:40:05.132Z,101994.00
2023-01-28T01:42:34.945Z,101990.53
2023-01-28T01:45:06.105Z,101986.34
2023-01-28T01:47:41.861Z,102000.03
2023-01-28T01:50:39.070Z,102000.75
2023-01-28T01:53:16.059Z,102004.94
2023-01-28T01:55:48.436Z,101998.84
2023-01-28T01:58:19.423Z,101996.25
2023-01-28T02:00:46.808Z,101998.00
2023-01-28T02:03:14.249Z,102004.06
2023-01-28T02:05:40.749Z,102004.06
2023-01-28T02:08:22.387Z,102004.94
2023-01-28T02:10:54.046Z,102007.41
2023-01-28T02:13:25.101Z,102004.09
2023-01-28T02:15:51.704Z,102000.53
2023-01-28T02:18:18.185Z,102007.41
2023-01-28T02:21:03.611Z,102009.00
2023-01-28T02:23:48.136Z,102009.00
2023-01-28T02:26:58.142Z,102014.94
2023-01-28T02:29:36.671Z,102011.47
2023-01-28T02:32:03.087Z,102020.19
2023-01-28T02:34:42.812Z,102021.91
2023-01-28T02:37:21.643Z,102019.22
2023-01-28T02:39:51.666Z,102025.25
2023-01-28T02:42:39.142Z,102032.06
2023-01-28T02:45:46.466Z,102031.31
2023-01-28T02:48:13.415Z,102025.44
2023-01-28T02:51:03.064Z,102031.53
2023-01-28T02:53:45.108Z,102029.84
2023-01-28T02:56:50.860Z,102030.44
2023-01-28T02:59:35.277Z,102034.81
2023-01-28T03:02:15.048Z,102034.66
2023-01-28T03:04:49.536Z,102035.31
2023-01-28T03:07:18.727Z,102035.34
2023-01-28T03:09:48.635Z,102041.41
2023-01-28T03:12:45.183Z,102038.13
2023-01-28T03:15:43.395Z,102042.47
2023-01-28T03:19:09.895Z,102033.78
2023-01-28T03:22:01.816Z,102033.59
2023-01-28T03:24:53.802Z,102033.59
2023-01-28T03:28:18.782Z,102032.72
2023-01-28T03:31:26.720Z,102031.78
2023-01-28T03:34:13.081Z,102033.34
2023-01-28T03:36:55.420Z,102040.19
2023-01-28T03:39:25.895Z,102030.88
2023-01-28T03:42:06.914Z,102030.50
2023-01-28T03:44:52.763Z,102028.81
2023-01-28T03:47:21.675Z,102029.63
2023-01-28T03:49:50.916Z,102027.94
2023-01-28T03:52:20.200Z,102045.22
2023-01-28T03:54:48.494Z,102039.88
2023-01-28T03:57:16.176Z,102038.25
2023-01-28T03:59:43.467Z,102044.16
2023-01-28T04:02:11.572Z,102046.75
2023-01-28T04:04:41.482Z,102054.19
2023-01-28T04:07:10.610Z,102043.88
2023-01-28T04:09:38.006Z,102042.25
2023-01-28T04:12:05.523Z,102048.28
2023-01-28T04:14:32.458Z,102043.81
2023-01-28T04:16:59.364Z,102043.81
2023-01-28T04:19:26.727Z,102050.69
2023-01-28T04:21:56.704Z,102051.25
2023-01-28T04:24:23.832Z,102046.88
2023-01-28T04:26:50.378Z,102054.59
2023-01-28T04:29:16.837Z,102065.00
2023-01-28T04:31:43.327Z,102061.53
2023-01-28T04:34:10.104Z,102058.13
2023-01-28T04:36:36.609Z,102059.19
2023-01-28T04:39:03.457Z,102061.88
2023-01-28T04:41:30.090Z,102061.78
2023-01-28T04:43:56.533Z,102066.94
2023-01-28T04:46:22.953Z,102071.75
2023-01-28T04:48:49.382Z,102075.25
2023-01-28T04:51:17.043Z,102074.38
2023-01-28T04:53:43.439Z,102075.00
2023-01-28T04:56:09.847Z,102073.38
2023-01-28T04:58:36.320Z,102076.97
2023-01-28T05:01:02.918Z,102071.69
2023-01-28T05:03:29.503Z,102070.00
2023-01-28T05:05:55.910Z,102068.34
2023-01-28T05:08:22.688Z,102067.56
2023-01-28T05:10:49.143Z,102067.63
2023-01-28T05:13:15.648Z,102072.94
2023-01-28T05:15:42.139Z,102077.25
2023-01-28T05:18:08.623Z,102071.09
2023-01-28T05:20:35.051Z,102064.16
2023-01-28T05:23:01.500Z,102075.25
2023-01-28T05:25:28.009Z,102073.56
2023-01-28T05:27:54.545Z,102065.03
2023-01-28T05:30:21.445Z,102068.44
2023-01-28T05:32:48.392Z,102065.03
2023-01-28T05:35:15.417Z,102059.00
2023-01-28T05:37:42.146Z,102063.44
2023-01-28T05:40:09.357Z,102066.00
2023-01-28T05:42:35.910Z,102074.56
2023-01-28T05:45:02.322Z,102072.78
2023-01-28T05:47:28.802Z,102077.22
2023-01-28T05:49:55.244Z,102077.00
2023-01-28T05:52:21.720Z,102080.31
2023-01-28T05:54:48.338Z,102090.75
2023-01-28T05:57:14.845Z,102098.59
2023-01-28T05:59:41.385Z,102099.19
2023-01-28T06:02:07.859Z,102095.53
2023-01-28T06:04:34.361Z,102105.66
2023-01-28T06:07:00.862Z,102106.56
2023-01-28T06:09:27.304Z,102103.03
2023-01-28T06:11:53.739Z,102111.53
2023-01-28T06:14:20.154Z,102115.00
2023-01-28T06:16:46.693Z,102114.16
2023-01-28T06:19:13.122Z,102111.66
2023-01-28T06:21:39.623Z,102106.56
2023-01-28T06:24:06.156Z,102113.34
2023-01-28T06:26:32.557Z,102110.91
2023-01-28T06:28:59.104Z,102105.59
2023-01-28T06:31:25.643Z,102109.88
2023-01-28T06:33:52.078Z,102117.69
2023-01-28T06:36:18.569Z,102108.06
2023-01-28T06:38:44.941Z,102109.72
2023-01-28T06:41:11.377Z,102100.38
2023-01-28T06:43:37.777Z,102106.44
2023-01-28T06:46:04.415Z,102111.66
2023-01-28T06:48:30.917Z,102115.03
2023-01-28T06:50:57.617Z,102114.06
2023-01-28T06:53:24.164Z,102119.16
2023-01-28T06:55:50.711Z,102123.28
2023-01-28T06:58:17.534Z,102123.19
2023-01-28T07:00:44.158Z,102121.59
2023-01-28T07:03:10.666Z,102111.16
2023-01-28T07:05:37.344Z,102120.47
2023-01-28T07:08:03.813Z,102122.09
2023-01-28T07:10:30.423Z,102118.84
2023-01-28T07:12:56.936Z,102118.84
2023-01-28T07:15:23.388Z,102112.03
2023-01-28T07:17:49.912Z,102105.94
2023-01-28T07:20:17.526Z,102101.09
2023-01-28T07:22:45.216Z,102107.88
2023-01-28T07:25:13.803Z,102113.03
2023-01-28T07:27:45.571Z,102114.72
2023-01-28T07:30:12.772Z,102126.56
2023-01-28T07:32:39.466Z,102120.34
2023-01-28T07:35:06.734Z,102113.41
2023-01-28T07:37:33.189Z,102117.59
2023-01-28T07:39:59.622Z,102122.91
2023-01-28T07:42:26.159Z,102121.84
2023-01-28T07:44:52.736Z,102117.31
2023-01-28T07:47:19.609Z,102118.75
2023-01-28T07:49:46.181Z,102122.09
2023-01-28T07:52:12.663Z,102129.06
2023-01-28T07:54:39.094Z,102131.91
2023-01-28T07:57:12.279Z,102121.66
2023-01-28T07:59:38.771Z,102119.28
2023-01-28T08:02:05.362Z,102123.47
2023-01-28T08:04:31.891Z,102142.91
2023-01-28T08:06:58.415Z,102132.59
2023-01-28T08:09:24.927Z,102146.56
2023-01-28T08:11:51.513Z,102143.22
2023-01-28T08:14:17.974Z,102141.47
2023-01-28T08:16:44.447Z,102152.94
2023-01-28T08:19:11.268Z,102160.47
2023-01-28T08:21:37.720Z,102170.94
2023-01-28T08:24:04.586Z,102167.41
2023-01-28T08:26:31.117Z,102166.53
2023-01-28T08:28:57.576Z,102171.00
2023-01-28T08:31:24.091Z,102174.50
2023-01-28T08:33:50.588Z,102185.09
2023-01-28T08:36:17.014Z,102183.50
2023-01-28T08:38:43.581Z,102188.69
2023-01-28T08:41:10.011Z,102187.84
2023-01-28T08:43:36.473Z,102189.50
2023-01-28T08:46:06.647Z,102186.03
2023-01-28T08:48:33.118Z,102182.41
2023-01-28T08:51:00.151Z,102183.28
2023-01-28T08:53:26.626Z,102190.81
2023-01-28T08:55:54.106Z,102203.66
2023-01-28T08:58:20.580Z,102198.66
2023-01-28T09:00:47.834Z,102201.88
2023-01-28T09:03:14.696Z,102213.63
2023-01-28T09:05:41.222Z,102213.19
2023-01-28T09:08:10.947Z,102222.16
2023-01-28T09:10:38.402Z,102225.56
2023-01-28T09:13:11.428Z,102225.44
2023-01-28T09:15:38.336Z,102238.50
2023-01-28T09:18:05.481Z,102240.28
2023-01-28T09:20:35.352Z,102238.41
2023-01-28T09:23:02.209Z,102241.78
2023-01-28T09:25:28.879Z,102252.44
2023-01-28T09:27:55.369Z,102247.28
2023-01-28T09:30:21.966Z,102250.06
2023-01-28T09:32:52.449Z,102253.00
2023-01-28T09:35:19.602Z,102244.50
2023-01-28T09:37:46.683Z,102248.16
2023-01-28T09:40:20.788Z,102246.41
2023-01-28T09:42:55.644Z,102248.06
2023-01-28T09:45:29.371Z,102250.59
2023-01-28T09:47:58.616Z,102243.56
2023-01-28T09:50:40.979Z,102242.03
2023-01-28T09:53:10.317Z,102255.22
2023-01-28T09:55:40.882Z,102262.63
2023-01-28T09:58:12.761Z,102266.00
2023-01-28T10:01:12.056Z,102265.00
2023-01-28T10:04:12.640Z,102271.31
2023-01-28T10:06:54.102Z,102261.34
2023-01-28T10:09:31.732Z,102258.16
2023-01-28T10:12:26.454Z,102248.06
2023-01-28T10:15:20.274Z,102255.09
2023-01-28T10:17:51.001Z,102254.94
2023-01-28T10:20:25.937Z,102240.50
2023-01-28T10:23:02.455Z,102244.06
2023-01-28T10:25:32.278Z,102251.16
2023-01-28T10:28:01.558Z,102261.25
2023-01-28T10:30:31.741Z,102257.50
2023-01-28T10:33:04.204Z,102249.94
2023-01-28T10:35:39.253Z,102246.81
2023-01-28T10:38:08.805Z,102234.19
2023-01-28T10:40:36.175Z,102249.94
2023-01-28T10:43:02.800Z,102251.59
2023-01-28T10:45:40.450Z,102243.84
2023-01-28T10:48:29.290Z,102237.81
2023-01-28T10:51:06.102Z,102245.88
2023-01-28T10:53:41.473Z,102239.94
2023-01-28T10:56:11.766Z,102236.44
2023-01-28T10:58:54.400Z,102235.94
2023-01-28T11:01:21.020Z,102236.81
2023-01-28T11:03:58.496Z,102255.81
2023-01-28T11:06:28.046Z,102258.47
2023-01-28T11:08:55.084Z,102260.09
2023-01-28T11:11:26.997Z,102254.06
2023-01-28T11:13:58.302Z,102251.16
2023-01-28T11:16:26.378Z,102259.84
2023-01-28T11:18:55.371Z,102272.31
2023-01-28T11:21:27.715Z,102275.97
2023-01-28T11:23:59.469Z,102269.94
2023-01-28T11:26:38.627Z,102268.50
2023-01-28T11:29:06.237Z,102273.59
2023-01-28T11:31:43.113Z,102271.25
2023-01-28T11:34:16.651Z,102267.50
2023-01-28T11:36:54.708Z,102261.03
2023-01-28T11:39:28.553Z,102251.97
2023-01-28T11:42:09.703Z,102261.22
2023-01-28T11:44:36.205Z,102259.59
2023-01-28T11:47:21.735Z,102248.53
2023-01-28T11:50:09.425Z,102247.38
2023-01-28T11:53:08.607Z,102248.47
2023-01-28T11:55:58.242Z,102250.16
2023-01-28T11:58:45.231Z,102254.63
2023-01-28T12:01:21.227Z,102238.19
2023-01-28T12:04:38.395Z,102233.63
2023-01-28T12:07:23.179Z,102238.69
2023-01-28T12:09:55.122Z,102234.28
2023-01-28T12:12:32.540Z,102239.56
2023-01-28T12:15:19.250Z,102245.06
2023-01-28T12:18:06.784Z,102232.03
2023-01-28T12:20:57.539Z,102234.41
2023-01-28T12:23:48.845Z,102239.69
2023-01-28T12:26:39.683Z,102237.03
2023-01-28T12:29:25.476Z,102225.84
2023-01-28T12:32:39.225Z,102229.19
2023-01-28T12:35:25.043Z,102216.47
2023-01-28T12:38:19.475Z,102212.56
2023-01-28T12:40:59.643Z,102207.78
2023-01-28T12:43:38.631Z,102193.56
2023-01-28T12:46:52.374Z,102181.13
2023-01-28T12:49:37.003Z,102180.34
2023-01-28T12:52:22.847Z,102172.69
2023-01-28T12:55:00.805Z,102177.97
2023-01-28T12:57:29.893Z,102172.44
2023-01-28T13:00:05.470Z,102157.47
2023-01-28T13:02:41.448Z,102154.81
2023-01-28T13:05:14.002Z,102152.13
2023-01-28T13:07:52.131Z,102131.06
2023-01-28T13:10:51.579Z,102103.81
2023-01-28T13:13:36.625Z,102104.88
2023-01-28T13:16:05.316Z,102101.91
2023-01-28T13:18:44.341Z,102092.72
2023-01-28T13:21:23.894Z,102115.38
2023-01-28T13:24:12.731Z,102132.44
2023-01-28T13:26:57.995Z,102141.38
2023-01-28T13:29:24.395Z,102148.06
2023-01-28T13:31:53.483Z,102153.34
2023-01-28T13:34:29.796Z,102151.34
2023-01-28T13:36:58.797Z,102165.09
2023-01-28T13:39:27.620Z,102152.91
2023-01-28T13:42:07.309Z,102153.00
2023-01-28T13:44:36.446Z,102155.59
2023-01-28T13:47:08.945Z,102152.94
2023-01-28T13:49:42.207Z,102163.44
2023-01-28T13:52:11.732Z,102161.09
2023-01-28T13:54:48.904Z,102180.84
2023-01-28T13:57:33.485Z,102175.44
2023-01-28T14:00:21.183Z,102177.94
2023-01-28T14:03:26.082Z,102177.06
2023-01-28T14:06:04.599Z,102165.94
2023-01-28T14:08:49.872Z,102182.38
2023-01-28T14:11:45.705Z,102181.03
2023-01-28T14:14:15.113Z,102184.47
2023-01-28T14:16:52.815Z,102191.94
2023-01-28T14:19:28.242Z,102186.44
2023-01-28T14:21:56.259Z,102184.19
2023-01-28T14:24:23.927Z,102192.09
2023-01-28T14:27:02.380Z,102188.72
2023-01-28T14:29:35.175Z,102178.25
2023-01-28T14:32:11.905Z,102172.72
2023-01-28T14:34:38.505Z,102165.66
2023-01-28T14:37:08.577Z,102156.63
2023-01-28T14:39:53.854Z,102151.47
2023-01-28T14:42:26.208Z,102146.00
2023-01-28T14:45:04.839Z,102143.34
2023-01-28T14:48:02.275Z,102142.59
2023-01-28T14:50:53.570Z,102134.06
2023-01-28T14:53:58.683Z,102129.44
2023-01-28T14:56:44.722Z,102125.22
2023-01-28T14:59:19.102Z,102125.56
2023-01-28T15:01:48.194Z,102114.25
2023-01-28T15:04:29.772Z,102110.94
2023-01-28T15:06:57.801Z,102121.75
2023-01-28T15:09:24.624Z,102123.22
2023-01-28T15:11:54.819Z,102130.38
2023-01-28T15:14:32.163Z,102145.59
2023-01-28T15:16:59.998Z,102138.59
2023-01-28T15:19:32.387Z,102147.28
2023-01-28T15:22:05.406Z,102138.31
2023-01-28T15:24:35.179Z,102135.56
2023-01-28T15:27:02.052Z,102149.34
2023-01-28T15:29:36.580Z,102152.84
2023-01-28T15:32:06.321Z,102162.00
2023-01-28T15:34:32.838Z,102158.47
2023-01-28T15:37:01.028Z,102159.38
2023-01-28T15:39:29.204Z,102160.19
2023-01-28T15:42:05.339Z,102157.53
2023-01-28T15:44:45.652Z,102155.75
2023-01-28T15:47:25.886Z,102165.03
2023-01-28T15:49:55.744Z,102167.56
2023-01-28T15:52:30.659Z,102170.09
2023-01-28T15:54:57.845Z,102176.84
2023-01-28T15:57:33.536Z,102169.81
2023-01-28T16:00:20.647Z,102176.09
2023-01-28T16:02:52.852Z,102189.69
2023-01-28T16:05:41.143Z,102190.19
2023-01-28T16:08:10.575Z,102189.09
2023-01-28T16:10:38.055Z,102197.66
2023-01-28T16:13:10.447Z,102204.25
2023-01-28T16:15:39.191Z,102207.88
2023-01-28T16:18:06.517Z,102206.16
2023-01-28T16:20:33.410Z,102206.72
2023-01-28T16:23:03.956Z,102218.25
2023-01-28T16:25:36.907Z,102223.78
2023-01-28T16:28:13.576Z,102235.91
2023-01-28T16:30:40.010Z,102235.22
2023-01-28T16:33:22.043Z,102230.75
2023-01-28T16:36:05.518Z,102237.09
2023-01-28T16:38:34.559Z,102233.28
2023-01-28T16:41:01.249Z,102236.50
2023-01-28T16:43:27.669Z,102236.25
2023-01-28T16:45:54.139Z,102245.50
2023-01-28T16:48:20.776Z,102247.31
2023-01-28T16:50:47.289Z,102242.16
2023-01-28T16:53:33.609Z,102254.81
2023-01-28T16:56:00.662Z,102261.22
2023-01-28T16:58:27.575Z,102260.41
2023-01-28T17:00:54.036Z,102262.38
2023-01-28T17:03:20.734Z,102257.03
2023-01-28T17:05:47.206Z,102242.75
2023-01-28T17:08:13.705Z,102238.88
2023-01-28T17:10:40.180Z,102229.38
2023-01-28T17:13:06.634Z,102223.13
2023-01-28T17:15:35.375Z,102231.81
2023-01-28T17:18:01.834Z,102230.13
2023-01-28T17:20:28.364Z,102224.56
2023-01-28T17:22:54.772Z,102235.19
2023-01-28T17:25:21.240Z,102245.38
2023-01-28T17:27:49.923Z,102237.00
2023-01-28T17:30:19.452Z,102231.53
2023-01-28T17:32:46.018Z,102235.22
2023-01-28T17:35:12.550Z,102224.69
2023-01-28T17:37:39.008Z,102216.97
2023-01-28T17:40:06.159Z,102212.66
2023-01-28T17:42:32.603Z,102232.81
2023-01-28T17:45:03.089Z,102230.94
2023-01-28T17:47:30.811Z,102224.91
2023-01-28T17:49:58.453Z,102228.28
2023-01-28T17:52:24.947Z,102248.88
2023-01-28T17:54:51.515Z,102255.34
2023-01-28T17:57:18.011Z,102251.88
2023-01-28T17:59:44.524Z,102256.28
2023-01-28T18:02:12.351Z,102268.16
2023-01-28T18:04:40.625Z,102279.84
2023-01-28T18:07:10.909Z,102284.06
2023-01-28T18:09:42.048Z,102293.88
2023-01-28T18:12:10.544Z,102282.75
2023-01-28T18:14:38.358Z,102282.13
2023-01-28T18:17:06.132Z,102289.19
2023-01-28T18:19:35.255Z,102294.25
2023-01-28T18:22:01.766Z,102292.31
2023-01-28T18:24:29.975Z,102284.00
2023-01-28T18:26:59.744Z,102294.00
2023-01-28T18:29:28.160Z,102306.06
2023-01-28T18:31:56.868Z,102309.19
2023-01-28T18:34:26.155Z,102299.16
2023-01-28T18:36:53.688Z,102291.34
2023-01-28T18:39:20.783Z,102285.72
2023-01-28T18:41:47.514Z,102286.44
2023-01-28T18:44:16.092Z,102289.81
2023-01-28T18:46:43.024Z,102299.84
2023-01-28T18:49:09.684Z,102300.13
2023-01-28T18:51:36.268Z,102303.50
2023-01-28T18:54:04.814Z,102299.72
2023-01-28T18:56:33.079Z,102301.47
2023-01-28T18:59:01.636Z,102304.44
2023-01-28T19:01:29.161Z,102308.31
2023-01-28T19:03:56.918Z,102316.34
2023-01-28T19:06:24.031Z,102317.25
2023-01-28T19:08:56.038Z,102319.72
2023-01-28T19:11:24.161Z,102314.66
2023-01-28T19:13:51.319Z,102303.31
2023-01-28T19:16:18.619Z,102308.31
2023-01-28T19:18:51.518Z,102314.81
2023-01-28T19:21:18.005Z,102306.88
2023-01-28T19:23:49.824Z,102310.47
2023-01-28T19:26:21.073Z,102316.56
2023-01-28T19:28:49.277Z,102307.03
2023-01-28T19:31:16.040Z,102306.81
2023-01-28T19:33:42.470Z,102317.47
2023-01-28T19:36:10.248Z,102322.59
2023-01-28T19:38:37.156Z,102329.78
2023-01-28T19:41:05.814Z,102318.75
2023-01-28T19:43:33.960Z,102313.31
2023-01-28T19:46:02.751Z,102321.50
2023-01-28T19:48:29.547Z,102325.66
2023-01-28T19:50:56.378Z,102307.31
2023-01-28T19:53:22.891Z,102316.47
2023-01-28T19:55:52.013Z,102325.16
2023-01-28T19:58:18.914Z,102321.81
2023-01-28T20:00:45.530Z,102331.28
2023-01-28T20:03:12.844Z,102332.97
2023-01-28T20:05:39.604Z,102335.09
2023-01-28T20:08:06.310Z,102342.41
2023-01-28T20:10:32.767Z,102344.44
2023-01-28T20:12:59.238Z,102344.19
2023-01-28T20:15:25.812Z,102335.63
2023-01-28T20:17:52.237Z,102334.97
2023-01-28T20:20:18.783Z,102329.16
2023-01-28T20:22:45.296Z,102335.63
2023-01-28T20:25:11.725Z,102327.19
2023-01-28T20:27:38.240Z,102331.94
2023-01-28T20:30:05.116Z,102331.66
2023-01-28T20:32:31.583Z,102331.34
2023-01-28T20:34:58.206Z,102322.31
2023-01-28T20:37:24.703Z,102324.38
2023-01-28T20:39:52.108Z,102318.28
2023-01-28T20:42:18.583Z,102313.38
2023-01-28T20:44:45.072Z,102312.06
2023-01-28T20:47:11.596Z,102310.22
2023-01-28T20:49:38.051Z,102303.78
2023-01-28T20:52:05.418Z,102299.22
2023-01-28T20:54:31.931Z,102297.06
2023-01-28T20:56:58.321Z,102285.19
2023-01-28T20:59:24.811Z,102289.53
2023-01-28T21:01:51.739Z,102300.03
2023-01-28T21:04:18.503Z,102292.59
2023-01-28T21:06:44.972Z,102284.50
2023-01-28T21:09:11.466Z,102306.59
2023-01-28T21:11:37.950Z,102300.03
2023-01-28T21:14:04.544Z,102294.13
2023-01-28T21:16:31.026Z,102291.88
2023-01-28T21:18:57.496Z,102303.03
2023-01-28T21:21:27.104Z,102283.06
2023-01-28T21:23:56.779Z,102284.41
2023-01-28T21:26:24.060Z,102274.59
2023-01-28T21:28:50.658Z,102282.56
2023-01-28T21:31:22.457Z,102278.81
2023-01-28T21:33:50.105Z,102278.28
2023-01-28T21:36:17.650Z,102278.59
2023-01-28T21:38:44.936Z,102258.78
2023-01-28T21:41:11.453Z,102261.63
2023-01-28T21:43:38.449Z,102264.88
2023-01-28T21:46:05.200Z,102266.28
2023-01-28T21:48:31.918Z,102261.91
2023-01-28T21:51:26.710Z,102271.66
2023-01-28T21:53:53.596Z,102262.44
2023-01-28T21:56:20.565Z,102271.22
2023-01-28T21:59:05.693Z,102268.81
2023-01-28T22:01:32.498Z,102278.56
2023-01-28T22:03:59.237Z,102268.50
2023-01-28T22:06:25.863Z,102260.72
2023-01-28T22:08:53.121Z,102271.06
2023-01-28T22:11:19.867Z,102275.38
2023-01-28T22:13:46.740Z,102279.63
2023-01-28T22:16:13.491Z,102281.22
2023-01-28T22:18:39.980Z,102284.59
2023-01-28T22:21:08.449Z,102293.72
2023-01-28T22:23:35.091Z,102285.28
2023-01-28T22:26:02.270Z,102290.63
2023-01-28T22:28:29.504Z,102284.50
2023-01-28T22:31:06.369Z,102292.81
2023-01-28T22:33:32.998Z,102290.84
2023-01-28T22:35:59.522Z,102293.25
2023-01-28T22:38:26.054Z,102290.06
2023-01-28T22:40:52.496Z,102292.72
2023-01-28T22:43:18.963Z,102299.81
2023-01-28T22:45:45.415Z,102300.47
2023-01-28T22:48:11.887Z,102303.50
2023-01-28T22:50:38.364Z,102298.50
2023-01-28T22:53:04.805Z,102293.38
2023-01-28T22:55:32.548Z,102300.47
2023-01-28T22:57:58.984Z,102284.03
2023-01-28T23:00:28.157Z,102292.53
2023-01-28T23:02:54.762Z,102297.84
2023-01-28T23:05:21.307Z,102294.63
2023-01-28T23:07:47.923Z,102298.00
2023-01-28T23:10:15.012Z,102285.50
2023-01-28T23:12:41.753Z,102292.78
2023-01-28T23:15:28.791Z,102294.50
2023-01-28T23:18:13.698Z,102294.13
2023-01-28T23:20:58.887Z,102286.78
2023-01-28T23:23:44.114Z,102281.03
2023-01-28T23:26:10.609Z,102284.75
2023-01-28T23:28:37.044Z,102283.84
2023-01-28T23:31:03.671Z,102277.31
2023-01-28T23:33:30.254Z,102268.31
2023-01-28T23:35:56.657Z,102273.09
2023-01-28T23:38:23.095Z,102272.97
2023-01-28T23:40:49.567Z,102280.31
2023-01-28T23:43:16.056Z,102271.22
2023-01-28T23:45:42.527Z,102264.56
2023-01-28T23:48:09.223Z,102273.25
2023-01-28T23:50:35.982Z,102262.19
2023-01-28T23:53:02.427Z,102256.97
2023-01-28T23:55:28.916Z,102254.84
2023-01-28T23:57:55.439Z,102256.25
